Time;durP1;ratioP1;P1;durP2;ratioP2;P2;SDS_P1;SDS_P2;PMS_P1;PMS_P2;Temp;Humidity;BMP_temperature;BMP_pressure;BME280_temperature;BME280_humidity;BME280_pressure;Samples;Min_cycle;Max_cycle;Signal;HPM_P1;HPM_P2
2022/04/10 00:00:22;;;;;;;10.77;3.33;;;;;;;;;;5015704;28;94783;-73
2022/04/10 00:02:49;;;;;;;12.13;2.42;;;;;;;;;;4997601;28;93826;-73
2022/04/10 00:05:15;;;;;;;8.65;2.80;;;;;;;;;;5013889;28;93435;-73
2022/04/10 00:07:42;;;;;;;7.57;2.85;;;;;;;;;;5012420;28;93296;-73
2022/04/10 00:10:09;;;;;;;8.13;2.33;;;;;;;;;;5014009;28;92848;-73
2022/04/10 00:12:35;;;;;;;12.95;2.55;;;;;;;;;;5010836;28;96815;-73
2022/04/10 00:15:03;;;;;;;8.88;2.63;;;;;;;;;;5014553;28;92998;-73
2022/04/10 00:17:29;;;;;;;7.00;1.92;;;;;;;;;;5011613;28;93286;-73
2022/04/10 00:19:55;;;;;;;6.88;2.15;;;;;;;;;;5014080;28;93451;-73
2022/04/10 00:22:22;;;;;;;8.63;2.13;;;;;;;;;;5015153;28;92443;-73
2022/04/10 00:24:48;;;;;;;7.60;2.40;;;;;;;;;;5010934;28;94509;-73
2022/04/10 00:27:15;;;;;;;11.68;3.22;;;;;;;;;;5005730;28;92954;-73
2022/04/10 00:29:41;;;;;;;10.10;2.40;;;;;;;;;;5013001;28;92988;-73
2022/04/10 00:32:08;;;;;;;6.57;2.10;;;;;;;;;;5013520;28;93684;-73
2022/04/10 00:34:34;;;;;;;12.45;3.13;;;;;;;;;;5011443;28;92523;-73
2022/04/10 00:37:00;;;;;;;13.18;2.88;;;;;;;;;;5012664;28;95296;-73
2022/04/10 00:39:27;;;;;;;5.15;2.28;;;;;;;;;;5011776;28;93993;-73
2022/04/10 00:41:53;;;;;;;10.20;2.33;;;;;;;;;;5013666;28;92559;-73
2022/04/10 00:44:20;;;;;;;9.10;3.20;;;;;;;;;;5014537;28;95979;-73
2022/04/10 00:46:49;;;;;;;11.13;2.85;;;;;;;;;;5012097;28;92689;-73
2022/04/10 00:49:15;;;;;;;8.93;3.33;;;;;;;;;;5014047;28;92981;-73
2022/04/10 00:51:44;;;;;;;12.10;2.75;;;;;;;;;;5012192;28;93390;-73
2022/04/10 00:54:17;;;;;;;13.48;2.33;;;;;;;;;;5012308;28;92231;-73
2022/04/10 00:56:44;;;;;;;9.20;2.55;;;;;;;;;;5013544;28;92417;-73
2022/04/10 00:59:11;;;;;;;10.73;3.13;;;;;;;;;;5011797;28;93189;-73
2022/04/10 01:01:38;;;;;;;9.07;2.47;;;;;;;;;;5008537;28;94875;-74
2022/04/10 01:04:25;;;;;;;8.25;2.90;;;;;;;;;;5012144;28;95011;-73
2022/04/10 01:06:52;;;;;;;9.18;2.75;;;;;;;;;;5014121;28;93403;-73
2022/04/10 01:09:20;;;;;;;8.85;3.00;;;;;;;;;;5010762;28;94706;-73
2022/04/10 01:11:48;;;;;;;8.85;2.38;;;;;;;;;;5011643;28;93588;-73
2022/04/10 01:14:15;;;;;;;13.18;3.28;;;;;;;;;;5010212;28;92859;-73
2022/04/10 01:16:42;;;;;;;8.63;2.67;;;;;;;;;;5013196;28;92417;-73
2022/04/10 01:19:10;;;;;;;10.00;2.60;;;;;;;;;;5011003;28;93647;-73
2022/04/10 01:21:42;;;;;;;6.45;2.40;;;;;;;;;;5009780;28;92603;-73
2022/04/10 01:24:08;;;;;;;9.27;2.72;;;;;;;;;;5005061;28;93954;-73
2022/04/10 01:26:35;;;;;;;8.02;2.72;;;;;;;;;;4991306;28;94828;-73
2022/04/10 01:29:03;;;;;;;16.50;2.55;;;;;;;;;;5010238;28;92982;-73
2022/04/10 01:31:33;;;;;;;8.95;2.40;;;;;;;;;;5024118;28;93350;-73
2022/04/10 01:34:01;;;;;;;8.05;2.63;;;;;;;;;;4993545;28;92538;-73
2022/04/10 01:36:29;;;;;;;12.55;3.42;;;;;;;;;;5011464;28;92804;-73
2022/04/10 01:38:56;;;;;;;10.40;3.10;;;;;;;;;;5010116;28;95740;-73
2022/04/10 01:41:25;;;;;;;6.32;2.40;;;;;;;;;;5003220;28;93507;-73
2022/04/10 01:43:54;;;;;;;18.55;2.80;;;;;;;;;;5010556;28;93979;-73
2022/04/10 01:46:22;;;;;;;7.28;1.92;;;;;;;;;;5011108;28;94197;-73
2022/04/10 01:48:48;;;;;;;8.85;2.55;;;;;;;;;;5015492;28;92505;-73
2022/04/10 01:51:15;;;;;;;5.97;3.33;;;;;;;;;;5005370;28;98202;-72
2022/04/10 01:53:42;;;;;;;8.18;2.78;;;;;;;;;;4991262;28;92540;-73
2022/04/10 01:56:08;;;;;;;10.30;2.88;;;;;;;;;;5006342;28;92619;-73
2022/04/10 01:58:36;;;;;;;9.80;3.13;;;;;;;;;;5010112;28;93994;-73
2022/04/10 02:01:03;;;;;;;16.10;3.50;;;;;;;;;;5006547;28;94178;-73
2022/04/10 02:03:30;;;;;;;8.18;2.20;;;;;;;;;;5011963;28;92966;-73
2022/04/10 02:05:56;;;;;;;11.02;3.13;;;;;;;;;;5010615;28;93771;-73
2022/04/10 02:08:24;;;;;;;7.07;2.90;;;;;;;;;;5011707;28;91797;-74
2022/04/10 02:10:50;;;;;;;13.43;3.13;;;;;;;;;;5011856;28;94806;-73
2022/04/10 02:13:17;;;;;;;9.98;2.63;;;;;;;;;;5012804;28;92538;-73
2022/04/10 02:15:43;;;;;;;7.07;2.20;;;;;;;;;;5007936;28;94861;-73
2022/04/10 02:18:10;;;;;;;12.30;2.35;;;;;;;;;;5010504;28;96228;-73
2022/04/10 02:20:36;;;;;;;7.90;2.95;;;;;;;;;;5009600;28;92615;-73
2022/04/10 02:23:02;;;;;;;8.18;2.72;;;;;;;;;;5011001;28;94926;-73
2022/04/10 02:25:29;;;;;;;8.85;2.80;;;;;;;;;;5008768;28;94190;-73
2022/04/10 02:27:55;;;;;;;14.57;3.63;;;;;;;;;;5004391;28;92629;-72
2022/04/10 02:30:22;;;;;;;10.57;3.00;;;;;;;;;;4987170;28;93170;-73
2022/04/10 02:32:49;;;;;;;21.23;4.05;;;;;;;;;;5014759;28;94190;-73
2022/04/10 02:35:15;;;;;;;15.10;3.08;;;;;;;;;;5011108;28;92444;-73
2022/04/10 02:37:45;;;;;;;12.10;3.60;;;;;;;;;;5008110;28;95311;-72
2022/04/10 02:40:16;;;;;;;15.65;4.13;;;;;;;;;;5008276;28;95380;-73
2022/04/10 02:42:43;;;;;;;17.30;3.85;;;;;;;;;;5010667;28;97188;-73
2022/04/10 02:45:11;;;;;;;15.95;2.88;;;;;;;;;;5008657;28;95614;-73
2022/04/10 02:47:37;;;;;;;15.65;3.28;;;;;;;;;;5009224;28;92567;-73
2022/04/10 02:50:05;;;;;;;7.38;2.97;;;;;;;;;;5009617;28;92930;-73
2022/04/10 02:52:31;;;;;;;6.75;2.95;;;;;;;;;;5009854;28;95453;-73
2022/04/10 02:54:58;;;;;;;9.95;3.10;;;;;;;;;;5011795;28;92522;-73
2022/04/10 02:57:24;;;;;;;6.88;2.75;;;;;;;;;;5010597;28;92311;-73
2022/04/10 02:59:51;;;;;;;11.15;3.28;;;;;;;;;;5010173;28;93085;-73
2022/04/10 03:02:17;;;;;;;11.10;2.85;;;;;;;;;;5011575;28;92893;-73
2022/04/10 03:04:44;;;;;;;17.17;3.92;;;;;;;;;;5008682;28;97787;-73
2022/04/10 03:07:11;;;;;;;14.07;3.60;;;;;;;;;;5009356;28;94395;-73
2022/04/10 03:09:37;;;;;;;13.07;3.40;;;;;;;;;;5012428;28;94883;-73
2022/04/10 03:12:04;;;;;;;9.75;4.03;;;;;;;;;;5005926;28;95594;-73
2022/04/10 03:14:33;;;;;;;11.13;3.25;;;;;;;;;;5013314;28;92583;-73
2022/04/10 03:16:59;;;;;;;11.88;3.22;;;;;;;;;;5015762;28;94367;-73
2022/04/10 03:19:26;;;;;;;12.88;3.42;;;;;;;;;;5013386;28;93664;-73
2022/04/10 03:21:52;;;;;;;11.43;3.30;;;;;;;;;;5010995;28;95768;-73
2022/04/10 03:24:19;;;;;;;5.35;2.38;;;;;;;;;;5013607;28;93506;-73
2022/04/10 03:26:45;;;;;;;13.38;3.63;;;;;;;;;;5012744;28;92471;-73
2022/04/10 03:29:12;;;;;;;14.70;3.38;;;;;;;;;;5013624;28;94793;-73
2022/04/10 03:31:40;;;;;;;13.85;3.10;;;;;;;;;;5011738;28;94362;-73
2022/04/10 03:34:08;;;;;;;4.60;2.40;;;;;;;;;;5012869;28;92722;-73
2022/04/10 03:36:35;;;;;;;11.15;3.25;;;;;;;;;;5014851;28;93195;-73
2022/04/10 03:39:02;;;;;;;12.80;3.15;;;;;;;;;;5013669;28;93099;-73
2022/04/10 03:41:29;;;;;;;9.90;2.83;;;;;;;;;;5011253;28;92789;-73
2022/04/10 03:43:56;;;;;;;14.75;2.85;;;;;;;;;;5013395;28;94163;-73
2022/04/10 03:46:23;;;;;;;8.13;3.20;;;;;;;;;;5012323;28;91726;-73
2022/04/10 03:48:50;;;;;;;13.75;3.50;;;;;;;;;;5012791;28;95109;-73
2022/04/10 03:51:17;;;;;;;14.05;3.13;;;;;;;;;;5012049;28;95610;-73
2022/04/10 03:53:45;;;;;;;10.48;2.97;;;;;;;;;;5011465;28;94892;-73
2022/04/10 03:56:14;;;;;;;8.35;2.92;;;;;;;;;;5010755;28;97403;-73
2022/04/10 03:58:41;;;;;;;7.85;2.60;;;;;;;;;;5016132;28;95453;-74
2022/04/10 04:01:08;;;;;;;10.32;3.40;;;;;;;;;;5010300;28;95571;-73
2022/04/10 04:03:35;;;;;;;13.35;3.90;;;;;;;;;;5012184;28;94318;-73
2022/04/10 04:06:03;;;;;;;10.40;3.00;;;;;;;;;;5010582;28;92548;-73
2022/04/10 04:08:29;;;;;;;18.08;3.40;;;;;;;;;;5012979;28;93612;-73
2022/04/10 04:10:56;;;;;;;10.38;3.05;;;;;;;;;;5011464;28;93273;-73
2022/04/10 04:13:23;;;;;;;12.90;3.67;;;;;;;;;;5012794;28;92565;-73
2022/04/10 04:15:50;;;;;;;9.50;2.70;;;;;;;;;;5012079;28;92718;-73
2022/04/10 04:18:17;;;;;;;12.25;2.80;;;;;;;;;;5011887;28;95362;-73
2022/04/10 04:20:43;;;;;;;13.95;3.55;;;;;;;;;;5013791;28;92566;-73
2022/04/10 04:23:10;;;;;;;16.85;3.38;;;;;;;;;;5013890;28;93237;-73
2022/04/10 04:25:36;;;;;;;7.97;3.25;;;;;;;;;;5012753;28;92410;-73
2022/04/10 04:28:04;;;;;;;7.10;3.45;;;;;;;;;;5012800;28;95565;-73
2022/04/10 04:30:30;;;;;;;11.23;3.42;;;;;;;;;;5011671;28;92949;-73
2022/04/10 04:33:00;;;;;;;19.42;3.53;;;;;;;;;;5012726;28;93076;-73
2022/04/10 04:35:27;;;;;;;11.95;3.40;;;;;;;;;;5011567;28;94936;-73
2022/04/10 04:37:57;;;;;;;16.05;4.25;;;;;;;;;;5011977;28;95082;-73
2022/04/10 04:40:28;;;;;;;13.70;4.00;;;;;;;;;;5009775;28;92524;-73
2022/04/10 04:42:55;;;;;;;17.83;4.00;;;;;;;;;;5014031;28;95097;-73
2022/04/10 04:45:24;;;;;;;11.80;3.92;;;;;;;;;;5010413;28;92835;-73
2022/04/10 04:47:59;;;;;;;8.45;2.70;;;;;;;;;;5012592;28;93054;-73
2022/04/10 04:50:25;;;;;;;16.40;3.72;;;;;;;;;;5009707;28;93037;-73
2022/04/10 04:52:53;;;;;;;14.60;3.45;;;;;;;;;;5011896;28;92507;-73
2022/04/10 04:55:20;;;;;;;9.27;3.20;;;;;;;;;;5010851;28;95811;-73
2022/04/10 04:57:47;;;;;;;7.20;3.55;;;;;;;;;;5012626;28;95907;-73
2022/04/10 05:00:13;;;;;;;11.70;2.95;;;;;;;;;;5010244;28;91815;-73
2022/04/10 05:02:46;;;;;;;7.97;3.15;;;;;;;;;;5012560;28;94323;-73
2022/04/10 05:05:13;;;;;;;16.00;3.53;;;;;;;;;;5012696;28;94093;-73
2022/04/10 05:07:40;;;;;;;8.43;3.40;;;;;;;;;;5011643;28;94819;-73
2022/04/10 05:10:07;;;;;;;9.35;2.70;;;;;;;;;;5010483;28;94079;-73
2022/04/10 05:12:36;;;;;;;11.02;2.83;;;;;;;;;;5011182;28;92903;-73
2022/04/10 05:15:08;;;;;;;5.82;2.63;;;;;;;;;;5010380;28;95135;-73
2022/04/10 05:17:38;;;;;;;5.75;2.22;;;;;;;;;;5011628;28;95156;-74
2022/04/10 05:20:07;;;;;;;19.08;3.20;;;;;;;;;;5008406;28;93130;-73
2022/04/10 05:22:41;;;;;;;8.70;2.60;;;;;;;;;;5011774;28;95758;-73
2022/04/10 05:25:09;;;;;;;11.07;2.85;;;;;;;;;;5010924;28;94759;-73
2022/04/10 05:27:37;;;;;;;8.48;3.15;;;;;;;;;;5013991;28;92818;-73
2022/04/10 05:30:04;;;;;;;7.60;2.33;;;;;;;;;;5008451;28;95689;-73
2022/04/10 05:32:31;;;;;;;11.38;2.70;;;;;;;;;;5009952;28;94861;-73
2022/04/10 05:34:58;;;;;;;11.10;3.20;;;;;;;;;;5009457;28;95637;-73
2022/04/10 05:37:26;;;;;;;3.72;1.95;;;;;;;;;;5011424;28;93146;-73
2022/04/10 05:39:56;;;;;;;8.82;2.20;;;;;;;;;;5009106;28;93818;-73
2022/04/10 05:42:22;;;;;;;8.45;2.00;;;;;;;;;;4974044;28;92953;-73
2022/04/10 05:44:49;;;;;;;5.57;2.22;;;;;;;;;;5014993;28;95377;-73
2022/04/10 05:47:17;;;;;;;5.60;2.15;;;;;;;;;;4993911;28;92594;-73
2022/04/10 05:49:43;;;;;;;3.40;1.80;;;;;;;;;;4999660;28;93385;-73
2022/04/10 05:52:10;;;;;;;8.30;2.13;;;;;;;;;;5010315;28;94127;-73
2022/04/10 05:54:39;;;;;;;10.57;2.35;;;;;;;;;;5009406;28;94585;-73
2022/04/10 05:57:06;;;;;;;8.13;2.00;;;;;;;;;;5009729;28;96974;-73
2022/04/10 05:59:33;;;;;;;3.88;2.25;;;;;;;;;;5008744;28;93213;-73
2022/04/10 06:02:00;;;;;;;4.15;2.00;;;;;;;;;;4992870;28;94142;-73
2022/04/10 06:04:27;;;;;;;8.25;1.55;;;;;;;;;;4998605;28;95135;-73
2022/04/10 06:06:54;;;;;;;9.75;2.13;;;;;;;;;;5010955;28;92497;-73
2022/04/10 06:09:26;;;;;;;8.32;2.25;;;;;;;;;;5012285;28;95599;-73
2022/04/10 06:11:52;;;;;;;13.23;2.35;;;;;;;;;;5009942;28;92899;-73
2022/04/10 06:14:19;;;;;;;11.77;2.45;;;;;;;;;;5010114;28;95218;-73
2022/04/10 06:16:48;;;;;;;5.57;1.75;;;;;;;;;;5010691;28;95800;-73
2022/04/10 06:19:18;;;;;;;4.82;2.70;;;;;;;;;;5009866;28;92626;-72
2022/04/10 06:21:45;;;;;;;4.03;1.73;;;;;;;;;;5008100;28;95287;-72
2022/04/10 06:24:13;;;;;;;3.03;1.80;;;;;;;;;;5009055;28;94045;-73
2022/04/10 06:26:44;;;;;;;4.30;1.70;;;;;;;;;;5010767;28;92685;-73
2022/04/10 06:29:11;;;;;;;2.20;1.33;;;;;;;;;;5009465;28;92566;-72
2022/04/10 06:31:45;;;;;;;5.00;1.75;;;;;;;;;;5011423;28;95754;-72
2022/04/10 06:34:13;;;;;;;3.42;1.33;;;;;;;;;;5009508;28;95407;-72
2022/04/10 06:36:41;;;;;;;3.67;1.67;;;;;;;;;;5010049;28;94279;-72
2022/04/10 06:39:14;;;;;;;6.83;1.67;;;;;;;;;;5008737;28;93569;-72
2022/04/10 06:41:40;;;;;;;7.97;2.03;;;;;;;;;;5002643;28;94299;-72
2022/04/10 06:44:16;;;;;;;3.53;1.83;;;;;;;;;;5012347;28;95510;-72
2022/04/10 06:46:45;;;;;;;7.43;1.83;;;;;;;;;;5012593;28;94929;-72
2022/04/10 06:49:19;;;;;;;3.17;1.87;;;;;;;;;;5013343;28;95263;-72
2022/04/10 06:51:45;;;;;;;4.50;1.83;;;;;;;;;;5013060;28;93483;-72
2022/04/10 06:54:17;;;;;;;2.53;1.45;;;;;;;;;;5016186;28;92761;-72
2022/04/10 06:56:44;;;;;;;1.65;1.55;;;;;;;;;;4993939;28;95630;-72
2022/04/10 06:59:11;;;;;;;5.57;2.00;;;;;;;;;;4993296;28;93042;-72
2022/04/10 07:01:38;;;;;;;3.75;1.70;;;;;;;;;;5013843;28;94130;-72
2022/04/10 07:04:05;;;;;;;5.30;2.28;;;;;;;;;;5014682;28;93286;-72
2022/04/10 07:06:33;;;;;;;11.68;2.00;;;;;;;;;;5011385;28;92780;-71
2022/04/10 07:09:00;;;;;;;10.35;3.05;;;;;;;;;;5014175;28;95980;-71
2022/04/10 07:11:31;;;;;;;5.55;1.98;;;;;;;;;;5010689;28;97075;-71
2022/04/10 07:14:00;;;;;;;8.18;2.38;;;;;;;;;;5013639;28;92478;-71
2022/04/10 07:16:27;;;;;;;3.42;1.55;;;;;;;;;;5015354;28;94288;-72
2022/04/10 07:18:54;;;;;;;3.17;1.58;;;;;;;;;;5013365;28;92456;-72
2022/04/10 07:24:10;;;;;;;3.90;1.67;;;;;;;;;;4999814;28;95052;-71
2022/04/10 07:26:43;;;;;;;3.22;1.90;;;;;;;;;;4991221;28;93656;-71
2022/04/10 07:29:12;;;;;;;5.03;1.60;;;;;;;;;;5002825;28;93941;-72
2022/04/10 07:31:40;;;;;;;8.25;1.52;;;;;;;;;;5009287;28;94520;-71
2022/04/10 07:34:07;;;;;;;2.50;1.60;;;;;;;;;;4993554;28;93066;-71
2022/04/10 07:36:56;;;;;;;4.90;1.35;;;;;;;;;;4985012;28;94878;-73
2022/04/10 07:39:26;;;;;;;3.38;1.73;;;;;;;;;;4996203;28;96004;-71
2022/04/10 07:42:03;;;;;;;2.35;1.60;;;;;;;;;;4988817;28;94817;-72
2022/04/10 07:44:54;;;;;;;1.95;1.70;;;;;;;;;;5002012;28;94237;-71
2022/04/10 07:47:27;;;;;;;5.82;1.98;;;;;;;;;;4992895;28;92849;-71
2022/04/10 07:49:56;;;;;;;5.25;2.17;;;;;;;;;;4993601;28;94142;-72
2022/04/10 07:52:23;;;;;;;3.70;2.38;;;;;;;;;;4992806;28;95327;-72
2022/04/10 07:54:57;;;;;;;4.97;2.25;;;;;;;;;;4993303;28;91789;-73
2022/04/10 07:57:25;;;;;;;6.53;2.30;;;;;;;;;;4993177;28;94443;-72
2022/04/10 07:59:51;;;;;;;5.22;2.40;;;;;;;;;;4996253;28;95357;-72
2022/04/10 08:02:38;;;;;;;6.78;2.42;;;;;;;;;;4977663;28;94989;-72
2022/04/10 08:05:14;;;;;;;5.45;2.33;;;;;;;;;;5000004;28;95108;-72
2022/04/10 08:07:58;;;;;;;5.32;2.03;;;;;;;;;;4981400;28;93947;-72
2022/04/10 08:10:24;;;;;;;2.13;1.85;;;;;;;;;;4986511;28;93946;-73
2022/04/10 08:12:51;;;;;;;3.65;2.20;;;;;;;;;;4983095;28;94739;-72
2022/04/10 08:15:18;;;;;;;7.65;1.65;;;;;;;;;;4987576;28;92481;-72
2022/04/10 08:17:44;;;;;;;2.78;1.60;;;;;;;;;;4987720;28;93883;-72
2022/04/10 08:20:12;;;;;;;6.95;2.30;;;;;;;;;;4975597;28;93015;-72
2022/04/10 08:22:39;;;;;;;4.35;1.75;;;;;;;;;;4987571;28;92929;-72
2022/04/10 08:25:06;;;;;;;7.53;1.83;;;;;;;;;;4983278;28;94296;-72
2022/04/10 08:27:33;;;;;;;5.78;1.90;;;;;;;;;;4992226;28;94890;-73
2022/04/10 08:29:59;;;;;;;3.03;1.45;;;;;;;;;;4985136;28;95198;-72
2022/04/10 08:32:26;;;;;;;11.43;2.00;;;;;;;;;;4984507;28;94096;-73
2022/04/10 08:34:52;;;;;;;6.70;2.47;;;;;;;;;;4980547;28;93673;-73
2022/04/10 08:37:19;;;;;;;5.07;1.90;;;;;;;;;;4991337;28;94546;-72
2022/04/10 08:39:45;;;;;;;5.43;1.35;;;;;;;;;;4993233;28;94145;-72
2022/04/10 08:42:12;;;;;;;6.03;2.45;;;;;;;;;;4993825;28;92884;-72
2022/04/10 08:44:38;;;;;;;6.90;1.77;;;;;;;;;;4996590;28;92967;-72
2022/04/10 08:47:04;;;;;;;11.40;2.88;;;;;;;;;;4978891;28;92484;-72
2022/04/10 08:49:31;;;;;;;11.18;2.45;;;;;;;;;;4974159;28;94302;-72
2022/04/10 08:51:59;;;;;;;6.97;1.80;;;;;;;;;;4971533;28;95683;-72
2022/04/10 08:54:25;;;;;;;11.52;3.25;;;;;;;;;;4973488;28;92566;-72
2022/04/10 08:56:52;;;;;;;4.20;1.77;;;;;;;;;;4973720;28;92962;-72
2022/04/10 08:59:19;;;;;;;6.35;2.03;;;;;;;;;;4972990;28;94179;-72
2022/04/10 09:01:46;;;;;;;3.78;1.52;;;;;;;;;;4973440;28;92427;-72
2022/04/10 09:04:15;;;;;;;9.27;1.95;;;;;;;;;;4973321;28;93963;-72
2022/04/10 09:06:55;;;;;;;7.38;1.80;;;;;;;;;;4975559;28;93249;-72
2022/04/10 09:09:21;;;;;;;5.68;1.35;;;;;;;;;;4974014;28;92838;-73
2022/04/10 09:11:53;;;;;;;8.07;1.92;;;;;;;;;;4991985;28;93463;-73
2022/04/10 09:14:19;;;;;;;5.13;2.03;;;;;;;;;;5013740;28;92840;-72
2022/04/10 09:16:46;;;;;;;7.20;1.75;;;;;;;;;;4993085;28;95924;-73
2022/04/10 09:19:13;;;;;;;6.60;1.65;;;;;;;;;;4995864;28;94222;-70
2022/04/10 09:21:40;;;;;;;6.60;1.77;;;;;;;;;;4973965;28;92688;-71
2022/04/10 09:24:10;;;;;;;6.97;1.80;;;;;;;;;;4992695;28;95436;-72
2022/04/10 09:26:46;;;;;;;13.27;2.40;;;;;;;;;;4992368;28;93239;-72
2022/04/10 09:29:13;;;;;;;5.70;1.65;;;;;;;;;;5007428;28;92426;-72
2022/04/10 09:31:40;;;;;;;4.22;1.45;;;;;;;;;;5004011;28;93179;-72
2022/04/10 09:34:07;;;;;;;2.20;1.45;;;;;;;;;;4992901;28;92194;-72
2022/04/10 09:36:47;;;;;;;2.70;1.33;;;;;;;;;;4992034;28;92886;-73
2022/04/10 09:39:29;;;;;;;10.75;2.03;;;;;;;;;;4992798;28;94427;-73
2022/04/10 09:42:06;;;;;;;3.33;1.80;;;;;;;;;;5007040;28;94870;-73
2022/04/10 09:44:36;;;;;;;14.40;2.08;;;;;;;;;;5007881;28;96400;-73
2022/04/10 09:47:07;;;;;;;4.30;1.23;;;;;;;;;;4972158;28;94136;-73
2022/04/10 09:49:34;;;;;;;4.30;1.50;;;;;;;;;;4972765;28;92483;-73
2022/04/10 09:52:05;;;;;;;9.57;1.83;;;;;;;;;;4976113;28;93459;-72
2022/04/10 09:54:35;;;;;;;11.52;1.95;;;;;;;;;;4972712;28;92548;-72
2022/04/10 09:57:20;;;;;;;1.65;1.20;;;;;;;;;;4973462;28;94262;-72
2022/04/10 09:59:48;;;;;;;5.80;1.60;;;;;;;;;;4981724;28;93575;-72
2022/04/10 10:02:15;;;;;;;3.92;1.40;;;;;;;;;;4972859;28;92775;-72
2022/04/10 10:04:44;;;;;;;4.45;2.03;;;;;;;;;;4972526;28;92865;-72
2022/04/10 10:07:12;;;;;;;2.22;1.42;;;;;;;;;;4978981;28;96155;-72
2022/04/10 10:09:39;;;;;;;9.27;1.75;;;;;;;;;;4991560;28;92450;-72
2022/04/10 10:12:06;;;;;;;4.60;1.70;;;;;;;;;;4980158;28;93987;-72
2022/04/10 10:14:33;;;;;;;5.78;1.90;;;;;;;;;;4972083;28;92749;-72
2022/04/10 10:17:00;;;;;;;3.00;1.45;;;;;;;;;;4973571;28;93880;-72
2022/04/10 10:19:30;;;;;;;7.60;2.08;;;;;;;;;;4975843;28;94178;-72
2022/04/10 10:21:57;;;;;;;5.88;1.58;;;;;;;;;;4975385;28;92547;-72
2022/04/10 10:24:24;;;;;;;8.35;1.88;;;;;;;;;;4977411;28;93177;-72
2022/04/10 10:26:56;;;;;;;4.72;1.60;;;;;;;;;;4976195;28;93354;-72
2022/04/10 10:29:41;;;;;;;2.80;1.23;;;;;;;;;;4975819;28;92932;-72
2022/04/10 10:32:22;;;;;;;7.53;1.58;;;;;;;;;;4974483;28;94861;-72
2022/04/10 10:34:50;;;;;;;4.18;1.60;;;;;;;;;;4979065;28;94083;-73
2022/04/10 10:37:25;;;;;;;8.07;1.90;;;;;;;;;;4975471;28;93791;-73
2022/04/10 10:39:52;;;;;;;5.55;1.45;;;;;;;;;;4975838;28;94057;-72
2022/04/10 10:42:18;;;;;;;3.30;1.33;;;;;;;;;;4976065;28;92518;-72
2022/04/10 10:44:48;;;;;;;5.28;1.83;;;;;;;;;;4994444;28;93025;-72
2022/04/10 10:47:16;;;;;;;5.72;1.33;;;;;;;;;;4995640;28;94172;-72
2022/04/10 10:49:47;;;;;;;2.17;1.25;;;;;;;;;;4995421;28;92892;-72
2022/04/10 10:52:14;;;;;;;2.15;1.23;;;;;;;;;;4995743;28;93475;-72
2022/04/10 10:54:44;;;;;;;4.43;1.45;;;;;;;;;;4995091;28;94745;-72
2022/04/10 10:57:30;;;;;;;3.83;1.50;;;;;;;;;;4996621;28;95905;-72
2022/04/10 11:00:08;;;;;;;3.60;1.30;;;;;;;;;;4995003;28;94794;-72
2022/04/10 11:02:35;;;;;;;5.13;1.33;;;;;;;;;;4994587;28;93025;-73
2022/04/10 11:05:25;;;;;;;6.88;2.20;;;;;;;;;;4993136;28;93274;-72
2022/04/10 11:07:57;;;;;;;5.82;1.15;;;;;;;;;;4995151;28;94253;-72
2022/04/10 11:10:28;;;;;;;3.47;1.70;;;;;;;;;;4995300;28;92406;-72
2022/04/10 11:12:58;;;;;;;3.95;1.30;;;;;;;;;;4994928;28;93916;-72
2022/04/10 11:15:29;;;;;;;1.30;1.17;;;;;;;;;;4983866;28;94053;-72
2022/04/10 11:17:55;;;;;;;6.00;1.75;;;;;;;;;;4983659;28;92551;-74
2022/04/10 11:20:23;;;;;;;4.93;1.40;;;;;;;;;;5004879;28;92874;-71
2022/04/10 11:22:52;;;;;;;3.15;1.33;;;;;;;;;;4988623;28;95287;-72
2022/04/10 11:25:27;;;;;;;2.60;1.30;;;;;;;;;;4983744;28;95765;-72
2022/04/10 11:27:54;;;;;;;1.38;1.23;;;;;;;;;;4989142;28;93977;-72
2022/04/10 11:30:22;;;;;;;4.00;1.30;;;;;;;;;;4985481;28;92589;-72
2022/04/10 11:32:50;;;;;;;3.20;1.10;;;;;;;;;;4986074;28;94055;-72
2022/04/10 11:35:27;;;;;;;2.10;1.30;;;;;;;;;;4985952;28;94188;-72
2022/04/10 11:37:57;;;;;;;2.55;1.00;;;;;;;;;;4987361;28;94039;-72
2022/04/10 11:40:25;;;;;;;4.07;1.48;;;;;;;;;;4986679;28;93619;-72
2022/04/10 11:42:54;;;;;;;4.15;1.85;;;;;;;;;;4992080;28;94100;-72
2022/04/10 11:45:21;;;;;;;1.95;1.20;;;;;;;;;;4986331;28;93925;-72
2022/04/10 11:47:48;;;;;;;7.50;1.90;;;;;;;;;;4988559;28;96593;-73
2022/04/10 11:50:15;;;;;;;9.07;2.08;;;;;;;;;;4984568;28;92492;-72
2022/04/10 11:52:53;;;;;;;3.85;1.50;;;;;;;;;;4988991;28;94254;-72
2022/04/10 11:55:20;;;;;;;4.45;1.45;;;;;;;;;;4983621;28;94722;-72
2022/04/10 11:57:46;;;;;;;4.25;1.42;;;;;;;;;;4988291;28;95251;-73
2022/04/10 12:00:13;;;;;;;3.83;1.20;;;;;;;;;;4983289;28;94632;-79
2022/04/10 12:02:39;;;;;;;6.70;1.35;;;;;;;;;;4987541;28;94086;-72
2022/04/10 12:05:07;;;;;;;2.42;1.20;;;;;;;;;;4997026;28;92718;-72
2022/04/10 12:07:33;;;;;;;4.05;1.20;;;;;;;;;;4983855;28;96248;-72
2022/04/10 12:09:59;;;;;;;3.25;1.10;;;;;;;;;;4987645;28;95094;-72
2022/04/10 12:12:36;;;;;;;4.65;1.38;;;;;;;;;;4986273;28;96443;-72
2022/04/10 12:15:13;;;;;;;4.97;1.27;;;;;;;;;;4995735;28;94190;-72
2022/04/10 12:17:39;;;;;;;4.30;1.58;;;;;;;;;;4986080;28;92982;-73
2022/04/10 12:20:27;;;;;;;2.58;1.23;;;;;;;;;;4985060;28;93329;-73
2022/04/10 12:22:53;;;;;;;3.58;1.35;;;;;;;;;;4985482;28;94250;-73
2022/04/10 12:25:20;;;;;;;4.38;1.60;;;;;;;;;;4988262;28;94773;-73
2022/04/10 12:27:49;;;;;;;6.50;1.65;;;;;;;;;;4988311;28;94188;-73
2022/04/10 12:30:17;;;;;;;3.88;1.35;;;;;;;;;;4983919;28;93930;-73
2022/04/10 12:32:44;;;;;;;4.20;1.20;;;;;;;;;;4986169;28;93193;-73
2022/04/10 12:35:11;;;;;;;2.22;1.40;;;;;;;;;;4982874;28;94520;-72
2022/04/10 12:37:58;;;;;;;2.97;1.48;;;;;;;;;;4990996;28;96644;-72
2022/04/10 12:40:26;;;;;;;2.30;1.20;;;;;;;;;;4984989;28;96228;-72
2022/04/10 12:42:56;;;;;;;4.03;1.48;;;;;;;;;;4986842;28;96261;-72
2022/04/10 12:45:23;;;;;;;1.20;1.08;;;;;;;;;;4985026;28;92731;-72
2022/04/10 12:47:49;;;;;;;3.65;1.20;;;;;;;;;;4991037;28;94113;-72
2022/04/10 12:50:18;;;;;;;4.63;1.35;;;;;;;;;;4986805;28;92885;-72
2022/04/10 12:52:45;;;;;;;9.50;1.45;;;;;;;;;;4984910;28;94087;-72
2022/04/10 12:55:15;;;;;;;6.47;1.83;;;;;;;;;;4986146;28;95590;-72
2022/04/10 12:57:50;;;;;;;1.77;1.40;;;;;;;;;;4984581;28;93227;-73
2022/04/10 13:00:35;;;;;;;1.23;1.20;;;;;;;;;;4987357;28;94163;-72
2022/04/10 13:03:19;;;;;;;4.30;1.90;;;;;;;;;;4984509;28;96879;-72
2022/04/10 13:05:55;;;;;;;3.42;1.45;;;;;;;;;;4984351;28;94327;-72
2022/04/10 13:08:22;;;;;;;5.43;1.50;;;;;;;;;;4986288;28;95676;-73
2022/04/10 13:10:50;;;;;;;4.35;1.25;;;;;;;;;;4985881;28;95392;-73
2022/04/10 13:13:53;;;;;;;10.10;1.55;;;;;;;;;;4987370;28;93069;-72
2022/04/10 13:16:34;;;;;;;2.83;1.60;;;;;;;;;;4986469;28;94246;-73
2022/04/10 13:19:02;;;;;;;5.45;1.42;;;;;;;;;;4984582;28;92981;-72
2022/04/10 13:21:28;;;;;;;5.55;1.48;;;;;;;;;;4984660;28;94027;-73
2022/04/10 13:23:55;;;;;;;4.22;1.33;;;;;;;;;;4986164;28;94184;-72
2022/04/10 13:26:28;;;;;;;2.45;1.30;;;;;;;;;;4988663;28;92500;-72
2022/04/10 13:28:55;;;;;;;5.65;1.80;;;;;;;;;;4987383;28;95584;-72
2022/04/10 13:31:22;;;;;;;6.60;1.20;;;;;;;;;;4985529;28;93495;-72
2022/04/10 13:33:49;;;;;;;1.88;1.02;;;;;;;;;;4990715;28;94580;-72
2022/04/10 13:36:15;;;;;;;2.80;1.17;;;;;;;;;;4986246;28;94346;-73
2022/04/10 13:38:42;;;;;;;6.80;1.20;;;;;;;;;;4982668;28;94421;-72
2022/04/10 13:41:08;;;;;;;3.08;1.10;;;;;;;;;;4981561;28;93798;-72
2022/04/10 13:43:34;;;;;;;2.63;1.30;;;;;;;;;;4986775;28;94299;-72
2022/04/10 13:46:01;;;;;;;2.63;1.30;;;;;;;;;;4988523;28;92137;-73
2022/04/10 13:48:27;;;;;;;1.25;0.98;;;;;;;;;;5012464;28;92691;-73
2022/04/10 13:50:54;;;;;;;6.07;1.30;;;;;;;;;;5010207;28;94622;-72
2022/04/10 13:53:21;;;;;;;3.22;1.55;;;;;;;;;;5010594;28;95658;-72
2022/04/10 13:55:48;;;;;;;3.75;1.58;;;;;;;;;;5008064;28;96285;-72
2022/04/10 13:58:15;;;;;;;1.77;1.20;;;;;;;;;;5011660;28;94951;-72
2022/04/10 14:00:41;;;;;;;4.50;1.15;;;;;;;;;;4999086;28;93264;-72
2022/04/10 14:03:07;;;;;;;1.67;0.93;;;;;;;;;;4992235;28;94527;-72
2022/04/10 14:05:34;;;;;;;2.78;1.10;;;;;;;;;;4991868;28;92515;-72
2022/04/10 14:08:01;;;;;;;4.70;1.23;;;;;;;;;;4995336;28;94061;-72
2022/04/10 14:10:27;;;;;;;3.00;1.00;;;;;;;;;;5012671;28;92443;-72
2022/04/10 14:12:54;;;;;;;1.92;1.10;;;;;;;;;;5008180;28;92537;-73
2022/04/10 14:15:20;;;;;;;3.13;1.75;;;;;;;;;;4985383;28;94478;-72
2022/04/10 14:17:46;;;;;;;3.72;1.17;;;;;;;;;;4991533;28;95387;-73
2022/04/10 14:20:13;;;;;;;1.77;1.10;;;;;;;;;;5006388;28;95211;-72
2022/04/10 14:22:39;;;;;;;2.47;0.82;;;;;;;;;;4996319;28;92725;-72
2022/04/10 14:25:06;;;;;;;5.30;1.30;;;;;;;;;;5012152;28;92430;-72
2022/04/10 14:27:32;;;;;;;0.70;0.68;;;;;;;;;;5008830;28;92428;-72
2022/04/10 14:29:59;;;;;;;1.25;0.82;;;;;;;;;;4995237;28;93978;-72
2022/04/10 14:32:25;;;;;;;1.20;0.93;;;;;;;;;;4991877;28;92568;-72
2022/04/10 14:34:51;;;;;;;3.65;1.10;;;;;;;;;;4992240;28;93942;-72
2022/04/10 14:37:18;;;;;;;3.88;1.30;;;;;;;;;;4995220;28;94468;-72
2022/04/10 14:39:51;;;;;;;2.55;1.10;;;;;;;;;;4997367;28;94675;-72
2022/04/10 14:42:17;;;;;;;1.15;0.90;;;;;;;;;;4991013;28;96955;-72
2022/04/10 14:44:44;;;;;;;1.33;0.80;;;;;;;;;;4984141;28;92479;-72
2022/04/10 14:47:10;;;;;;;4.55;1.23;;;;;;;;;;4981109;28;93262;-73
2022/04/10 14:49:36;;;;;;;1.25;0.80;;;;;;;;;;4985336;28;94175;-72
2022/04/10 14:52:03;;;;;;;0.77;0.70;;;;;;;;;;4985780;28;94444;-73